Weather at Gothenburg-Landvetter Airport

Public forecast

Using degrees Celsius for public forecast. Weather courtesy of forecast.io.

Current aviation weather report (METAR) for Gothenburg-Landvetter Airport

Report is more than 6 hours old.

2022/11/14 15:20 (retrieved 2 years ago)

ESGG 141520Z 11005KT 9999 OVC009 08/06 Q1020

Aviation forecast (TAF) for Gothenburg-Landvetter Airport

Forecast is more than 12 hours old.

2023/02/22 21:21 (retrieved 1 year ago)

TAF TAF ESGG 222030Z 2221/2321 15010KT 9999 BKN025 PROB40 2300/2303 2000 SNRA BKN008 BECMG 2303/2305 4000 -RADZ BR OVC006 TEMPO 2305/2321 1200 OVC003 BECMG 2314/2316 VRB03KT